Terminal Aerodrome Forecast
Issued by NWS St Louis, MO

Home | Current Version | Previous Version | Text Only | Print | Product List | Glossary On
Versions: 1 2 3 4 5 6 7 8 9 10 11 12
000
FTUS43 KLSX 220500
TAFCOU
TAF
KCOU 220520Z 2206/2306 10007KT P6SM SKC
     FM221200 11006KT P6SM SKC
     FM221800 15010KT P6SM SKC
     FM230100 13007KT P6SM SCT250=

USA.gov is the U.S. government's official web portal to all federal, state and local government web resources and services.